Time;durP1;ratioP1;P1;durP2;ratioP2;P2;SDS_P1;SDS_P2;PMS_P1;PMS_P2;Temp;Humidity;BMP_temperature;BMP_pressure;BME280_temperature;BME280_humidity;BME280_pressure;Samples;Min_cycle;Max_cycle;Signal;HPM_P1;HPM_P2
2022/07/21 00:02:05;;;;;;;19.77;18.38;;;;;;;14.74;64.53;93780.41;5071765;28;20025;-40
2022/07/21 00:04:31;;;;;;;3.20;2.92;;;;;;;14.75;64.14;93779.81;5069506;28;20726;-40
2022/07/21 00:06:56;;;;;;;21.02;18.45;;;;;;;14.68;64.17;93768.78;5070827;28;20060;-40
2022/07/21 00:09:22;;;;;;;10.45;3.63;;;;;;;14.67;63.83;93775.63;5071578;28;20056;-42
2022/07/21 00:11:47;;;;;;;5.90;5.25;;;;;;;14.76;63.01;93745.16;5071694;28;20114;-43
2022/07/21 00:14:13;;;;;;;6.15;5.82;;;;;;;14.87;62.69;93769.72;5051213;28;20033;-41
2022/07/21 00:16:40;;;;;;;5.60;5.20;;;;;;;14.66;63.21;93774.16;5070148;28;20090;-41
2022/07/21 00:19:06;;;;;;;4.05;2.97;;;;;;;14.67;63.20;93770.81;5071566;28;20029;-41
2022/07/21 00:21:31;;;;;;;15.10;14.15;;;;;;;14.64;63.52;93779.56;5069782;28;20874;-41
2022/07/21 00:23:57;;;;;;;14.93;13.98;;;;;;;14.55;63.70;93772.59;5068593;28;20093;-41
2022/07/21 00:26:22;;;;;;;10.77;10.00;;;;;;;14.44;64.26;93770.97;5067635;28;20024;-41
2022/07/21 00:28:48;;;;;;;6.53;6.07;;;;;;;14.39;64.46;93766.41;5070311;28;20132;-42
2022/07/21 00:31:14;;;;;;;6.53;2.38;;;;;;;14.32;64.51;93766.44;5070304;28;20024;-42
2022/07/21 00:33:39;;;;;;;9.25;8.35;;;;;;;14.51;64.20;93769.44;5070319;28;20469;-42
2022/07/21 00:36:05;;;;;;;14.63;2.80;;;;;;;14.54;64.05;93770.34;5069892;28;20413;-42
2022/07/21 00:38:31;;;;;;;9.88;2.70;;;;;;;14.32;64.21;93766.44;5070132;28;20024;-43
2022/07/21 00:40:56;;;;;;;5.75;2.75;;;;;;;14.23;64.28;93764.97;5070063;28;20485;-46
2022/07/21 00:43:22;;;;;;;3.90;3.60;;;;;;;14.17;64.54;93764.47;5069134;28;20481;-44
2022/07/21 00:45:47;;;;;;;3.30;2.30;;;;;;;14.09;64.90;93763.03;5069976;28;20024;-44
2022/07/21 00:48:13;;;;;;;3.70;3.00;;;;;;;13.94;65.26;93768.69;5067567;28;20043;-42
2022/07/21 00:50:38;;;;;;;3.65;3.33;;;;;;;13.95;65.09;93767.34;5071059;28;20035;-43
2022/07/21 00:53:04;;;;;;;3.75;3.45;;;;;;;14.09;64.98;93766.56;5071077;28;20544;-43
2022/07/21 00:55:29;;;;;;;14.73;5.13;;;;;;;14.00;65.05;93758.09;5070790;28;20039;-44
2022/07/21 00:57:55;;;;;;;6.25;2.38;;;;;;;13.83;65.51;93758.75;5070993;28;20035;-43
2022/07/21 01:00:27;;;;;;;6.70;6.32;;;;;;;13.85;65.77;93761.69;5070550;28;20517;-45
2022/07/21 01:02:53;;;;;;;2.95;2.60;;;;;;;13.95;65.61;93764.59;5070616;28;20032;-42
2022/07/21 01:05:19;;;;;;;2.55;2.35;;;;;;;14.15;64.47;93763.56;5070536;28;20119;-41
2022/07/21 01:07:46;;;;;;;4.30;2.85;;;;;;;14.25;64.19;93765.16;5070708;28;20489;-41
2022/07/21 01:10:13;;;;;;;2.65;2.45;;;;;;;14.18;64.68;93768.72;5070753;28;20043;-40
2022/07/21 01:12:39;;;;;;;3.35;2.65;;;;;;;14.10;64.26;93762.47;5070680;28;20474;-41
2022/07/21 01:15:09;;;;;;;18.20;17.27;;;;;;;14.12;64.50;93764.69;5070719;28;20067;-41
2022/07/21 01:17:34;;;;;;;6.00;2.47;;;;;;;13.98;64.99;93757.91;5070369;28;20025;-41
2022/07/21 01:20:12;;;;;;;9.27;8.77;;;;;;;13.91;64.96;93753.13;5070649;28;20024;-41
2022/07/21 01:22:41;;;;;;;9.18;5.75;;;;;;;13.84;65.02;93757.44;5070300;28;20758;-41
2022/07/21 01:25:07;;;;;;;7.60;2.97;;;;;;;13.78;65.28;93756.91;5070642;28;20455;-41
2022/07/21 01:27:33;;;;;;;19.95;5.57;;;;;;;13.74;65.38;93750.25;5070235;28;20050;-41
2022/07/21 01:29:59;;;;;;;6.45;5.05;;;;;;;13.68;65.17;93754.00;5070597;28;20489;-40
2022/07/21 01:32:24;;;;;;;3.17;2.88;;;;;;;13.61;65.57;93746.44;5070001;28;20035;-40
2022/07/21 01:34:50;;;;;;;3.00;2.80;;;;;;;13.45;65.99;93745.03;5070508;28;20036;-40
2022/07/21 01:37:20;;;;;;;3.15;2.35;;;;;;;13.32;66.06;93745.25;5070418;28;20039;-40
2022/07/21 01:42:31;;;;;;;2.50;2.30;;;;;;;13.32;66.76;93752.84;5070466;28;20474;-40
2022/07/21 01:44:57;;;;;;;3.45;2.63;;;;;;;13.47;66.64;93752.81;5070100;28;20029;-42
2022/07/21 01:47:22;;;;;;;2.58;2.38;;;;;;;13.22;66.69;93749.16;5070112;28;20029;-42
2022/07/21 01:49:48;;;;;;;3.25;2.65;;;;;;;13.14;66.97;93743.66;5070353;28;20024;-42
2022/07/21 01:52:13;;;;;;;2.75;2.55;;;;;;;13.10;67.17;93740.53;5070013;28;20524;-41
2022/07/21 01:54:39;;;;;;;3.42;3.13;;;;;;;12.99;67.44;93740.88;5069974;28;20032;-41
2022/07/21 01:57:04;;;;;;;3.40;2.60;;;;;;;13.26;66.76;93743.97;5069829;28;20144;-41
2022/07/21 01:59:30;;;;;;;2.97;2.78;;;;;;;13.21;67.08;93739.38;5069497;28;20020;-42
2022/07/21 02:01:55;;;;;;;4.00;2.83;;;;;;;13.14;67.44;93740.13;5069386;28;20032;-41
2022/07/21 02:04:21;;;;;;;2.67;2.40;;;;;;;13.36;67.04;93736.56;5069636;28;20123;-41
2022/07/21 02:06:46;;;;;;;4.18;2.78;;;;;;;13.43;65.94;93728.19;5069887;28;20028;-40
2022/07/21 02:09:12;;;;;;;3.25;2.95;;;;;;;13.41;66.70;93732.84;5070130;28;20059;-40
2022/07/21 02:11:37;;;;;;;2.88;2.67;;;;;;;13.41;65.82;93735.59;5069841;28;20024;-40
2022/07/21 02:14:03;;;;;;;3.85;2.65;;;;;;;13.31;65.77;93738.25;5069756;28;20115;-41
2022/07/21 02:16:29;;;;;;;4.20;2.60;;;;;;;13.36;66.58;93737.28;5070062;28;20032;-40
2022/07/21 02:18:54;;;;;;;2.95;2.53;;;;;;;13.38;65.09;93728.41;5070102;28;20035;-40
2022/07/21 02:21:20;;;;;;;3.00;2.33;;;;;;;13.41;64.77;93725.25;5069998;28;20551;-40
2022/07/21 02:23:45;;;;;;;3.13;2.70;;;;;;;13.34;65.60;93728.06;5070031;28;20021;-40
2022/07/21 02:26:11;;;;;;;2.88;2.63;;;;;;;13.11;66.38;93730.91;5069988;28;20104;-41
2022/07/21 02:28:37;;;;;;;3.83;3.40;;;;;;;13.09;66.91;93719.63;5069742;28;20477;-40
2022/07/21 02:31:02;;;;;;;4.22;2.70;;;;;;;12.83;67.36;93723.56;5069601;28;20500;-40
2022/07/21 02:33:28;;;;;;;2.72;2.53;;;;;;;12.94;67.05;93727.97;5069519;28;20029;-41
2022/07/21 02:35:53;;;;;;;3.05;2.75;;;;;;;12.81;67.09;93734.44;5069942;28;20028;-40
2022/07/21 02:38:19;;;;;;;3.42;2.80;;;;;;;12.70;67.64;93725.78;5070006;28;20025;-41
2022/07/21 02:40:44;;;;;;;2.80;2.60;;;;;;;12.85;67.40;93728.53;5072034;28;20036;-40
2022/07/21 02:43:10;;;;;;;3.53;2.92;;;;;;;12.69;67.27;93719.50;5073486;28;20104;-41
2022/07/21 02:45:36;;;;;;;3.10;2.72;;;;;;;12.96;67.31;93730.91;5073324;28;20074;-41
2022/07/21 02:48:16;;;;;;;3.15;2.85;;;;;;;12.75;67.87;93730.41;5073424;28;20035;-41
2022/07/21 02:50:44;;;;;;;3.65;2.78;;;;;;;12.58;68.05;93705.31;5073502;28;20020;-41
2022/07/21 02:53:11;;;;;;;3.70;2.80;;;;;;;12.76;68.42;93732.59;5073318;28;20024;-41
2022/07/21 02:55:37;;;;;;;3.80;2.88;;;;;;;12.81;68.39;93731.69;5073062;28;20482;-41
2022/07/21 02:58:12;;;;;;;3.00;2.55;;;;;;;12.76;67.69;93726.31;5072976;28;20483;-42
2022/07/21 03:00:50;;;;;;;2.80;2.60;;;;;;;12.91;67.19;93734.59;5073201;28;20040;-43
2022/07/21 03:03:16;;;;;;;2.60;2.40;;;;;;;12.91;66.95;93729.06;5072358;28;20047;-40
2022/07/21 03:05:42;;;;;;;3.15;2.38;;;;;;;13.10;66.04;93726.66;5072866;28;20032;-40
2022/07/21 03:08:08;;;;;;;3.08;2.50;;;;;;;12.84;66.61;93730.56;5072142;28;20413;-41
2022/07/21 03:10:34;;;;;;;4.10;3.15;;;;;;;12.94;66.57;93730.72;5072420;28;20039;-40
2022/07/21 03:12:59;;;;;;;4.82;2.75;;;;;;;12.65;67.25;93732.97;5072468;28;20028;-41
2022/07/21 03:15:25;;;;;;;4.68;3.50;;;;;;;12.70;67.27;93734.84;5072312;28;20036;-41
2022/07/21 03:17:52;;;;;;;3.42;2.83;;;;;;;12.83;66.40;93725.56;5072422;28;20413;-40
2022/07/21 03:20:17;;;;;;;7.57;3.28;;;;;;;12.99;66.30;93729.81;5071947;28;20064;-40
2022/07/21 03:22:43;;;;;;;6.95;3.28;;;;;;;12.73;66.86;93733.00;5072462;28;20031;-40
2022/07/21 03:25:09;;;;;;;5.93;2.80;;;;;;;12.99;66.43;93724.25;5054514;28;20127;-40
2022/07/21 03:27:36;;;;;;;3.88;3.28;;;;;;;12.81;67.13;93728.16;5072652;28;20025;-40
2022/07/21 03:30:07;;;;;;;3.67;3.38;;;;;;;12.69;67.31;93733.34;5072643;28;20107;-40
2022/07/21 03:32:33;;;;;;;3.17;2.80;;;;;;;12.62;67.41;93734.09;5071973;28;20020;-40
2022/07/21 03:34:58;;;;;;;4.63;3.08;;;;;;;12.55;67.49;93731.34;5071981;28;20390;-40
2022/07/21 03:37:24;;;;;;;3.35;2.70;;;;;;;12.80;66.67;93738.50;5072220;28;20496;-40
2022/07/21 03:39:50;;;;;;;4.43;2.90;;;;;;;12.96;66.15;93736.44;5072158;28;20485;-40
2022/07/21 03:42:15;;;;;;;3.00;2.70;;;;;;;12.74;67.02;93731.69;5071872;28;20024;-40
2022/07/21 03:44:41;;;;;;;7.13;3.63;;;;;;;12.74;67.48;93731.69;5071268;28;20032;-40
2022/07/21 03:47:06;;;;;;;7.43;3.13;;;;;;;12.62;67.87;93741.69;5071839;28;20032;-41
2022/07/21 03:49:32;;;;;;;3.55;3.00;;;;;;;12.80;67.22;93737.75;5071875;28;20032;-40
2022/07/21 03:51:57;;;;;;;5.43;3.10;;;;;;;12.90;67.34;93735.91;5071555;28;20031;-43
2022/07/21 03:54:22;;;;;;;6.32;3.40;;;;;;;12.70;67.66;93737.59;5071572;28;20024;-42
2022/07/21 03:56:48;;;;;;;3.97;3.47;;;;;;;12.59;68.56;93734.47;5071246;28;20041;-43
2022/07/21 03:59:13;;;;;;;7.88;2.95;;;;;;;12.85;68.14;93742.38;5070649;28;20020;-42
2022/07/21 04:01:39;;;;;;;13.65;12.68;;;;;;;12.88;67.46;93719.09;5070997;28;20047;-42
2022/07/21 04:04:04;;;;;;;5.22;4.70;;;;;;;13.09;67.13;93733.50;5069775;28;20509;-39
2022/07/21 04:06:30;;;;;;;3.50;3.20;;;;;;;13.23;66.84;93743.06;5071624;28;20111;-40
2022/07/21 04:08:55;;;;;;;3.55;3.00;;;;;;;12.95;67.48;93744.03;5071235;28;20472;-40
2022/07/21 04:11:21;;;;;;;5.55;4.72;;;;;;;13.05;67.70;93741.44;5071332;28;20144;-40
2022/07/21 04:13:46;;;;;;;6.47;3.75;;;;;;;13.26;66.88;93747.50;5070964;28;20033;-40
2022/07/21 04:16:11;;;;;;;4.72;3.65;;;;;;;13.36;66.45;93744.88;5071231;28;20048;-40
2022/07/21 04:18:37;;;;;;;7.10;4.47;;;;;;;13.43;66.78;93744.09;5071091;28;20031;-40
2022/07/21 04:21:03;;;;;;;73.43;11.48;;;;;;;13.46;67.15;93748.53;5069032;28;20062;-40
2022/07/21 04:23:29;;;;;;;47.97;9.05;;;;;;;13.48;67.80;93748.72;5071003;28;20410;-40
2022/07/21 04:25:54;;;;;;;30.95;8.07;;;;;;;13.39;68.63;93744.50;5070871;28;20031;-40
2022/07/21 04:28:20;;;;;;;24.88;8.70;;;;;;;13.48;68.25;93749.47;5071135;28;20021;-40
2022/07/21 04:30:45;;;;;;;19.40;8.23;;;;;;;13.17;68.09;93698.16;5071346;28;20057;-40
2022/07/21 04:33:11;;;;;;;11.52;7.50;;;;;;;13.64;67.99;93753.63;5053032;28;20028;-40
2022/07/21 04:35:36;;;;;;;11.70;8.48;;;;;;;13.65;67.95;93746.78;5070624;28;20036;-40
2022/07/21 04:38:02;;;;;;;12.85;7.50;;;;;;;13.68;67.89;93751.22;5070505;28;20097;-43
2022/07/21 04:40:27;;;;;;;10.02;6.93;;;;;;;13.65;68.94;93746.06;5070557;28;20103;-40
2022/07/21 04:42:53;;;;;;;8.65;6.13;;;;;;;13.93;68.40;93747.75;5071058;28;20024;-40
2022/07/21 04:45:19;;;;;;;6.18;5.38;;;;;;;13.91;68.62;93756.66;5070494;28;20131;-40
2022/07/21 04:47:54;;;;;;;6.72;5.55;;;;;;;14.05;67.92;93746.03;5070736;28;20188;-40
2022/07/21 04:50:24;;;;;;;20.15;7.40;;;;;;;14.16;68.38;93749.09;5070771;28;20024;-41
2022/07/21 04:52:49;;;;;;;13.35;8.10;;;;;;;14.22;68.99;93748.88;5070151;28;20497;-40
2022/07/21 04:55:15;;;;;;;14.63;9.20;;;;;;;14.31;69.20;93751.81;5070068;28;20024;-42
2022/07/21 04:57:46;;;;;;;13.10;8.35;;;;;;;14.32;68.57;93756.06;5063273;28;20482;-41
2022/07/21 05:00:15;;;;;;;14.13;8.52;;;;;;;14.50;68.55;93754.09;5070657;28;20036;-41
2022/07/21 05:02:40;;;;;;;15.17;10.03;;;;;;;14.58;68.82;93754.03;5059143;28;20116;-40
2022/07/21 05:05:07;;;;;;;14.70;10.20;;;;;;;14.72;68.62;93758.00;5069645;28;20525;-41
2022/07/21 05:07:32;;;;;;;22.25;9.68;;;;;;;14.80;68.86;93762.19;5070122;28;20060;-41
2022/07/21 05:09:58;;;;;;;13.90;9.70;;;;;;;14.90;68.08;93765.78;5070226;28;20055;-41
2022/07/21 05:12:25;;;;;;;13.85;11.38;;;;;;;14.86;68.83;93756.38;5068938;28;20138;-41
2022/07/21 05:14:50;;;;;;;14.98;9.18;;;;;;;14.86;69.45;93761.94;5070292;28;20418;-41
2022/07/21 05:17:16;;;;;;;11.95;9.32;;;;;;;14.93;69.67;93764.66;5070355;28;20043;-41
2022/07/21 05:19:43;;;;;;;14.10;8.82;;;;;;;15.15;68.29;93760.94;5070358;28;20472;-41
2022/07/21 05:22:08;;;;;;;11.40;9.18;;;;;;;15.30;67.72;93759.28;5070198;28;20024;-41
2022/07/21 05:24:34;;;;;;;21.27;8.98;;;;;;;15.51;67.72;93762.44;5070175;28;20031;-41
2022/07/21 05:26:59;;;;;;;10.95;8.77;;;;;;;15.59;67.71;93766.59;5069974;28;20428;-41
2022/07/21 05:29:25;;;;;;;9.75;7.60;;;;;;;15.63;67.50;93752.28;5070170;28;20082;-41
2022/07/21 05:31:50;;;;;;;9.15;6.78;;;;;;;15.76;67.86;93761.03;5069544;28;20040;-42
2022/07/21 05:34:16;;;;;;;9.25;6.35;;;;;;;15.81;68.16;93757.25;5069349;28;20063;-42
2022/07/21 05:36:41;;;;;;;8.27;6.35;;;;;;;15.93;67.77;93758.22;5070501;28;20032;-42
2022/07/21 05:39:07;;;;;;;8.35;5.88;;;;;;;16.06;67.93;93761.94;5067130;28;20024;-41
2022/07/21 05:41:32;;;;;;;9.85;4.18;;;;;;;16.02;66.37;93764.41;5068987;28;20526;-42
2022/07/21 05:43:58;;;;;;;4.50;3.95;;;;;;;16.13;66.35;93755.53;5069851;28;20028;-41
2022/07/21 05:46:23;;;;;;;5.68;4.22;;;;;;;16.32;66.69;93755.66;5068564;28;20475;-41
2022/07/21 05:48:49;;;;;;;7.78;4.70;;;;;;;16.46;65.64;93754.69;5069498;28;20051;-40
2022/07/21 05:51:14;;;;;;;5.55;3.95;;;;;;;16.62;65.52;93758.00;5069713;28;20387;-41
2022/07/21 05:53:40;;;;;;;8.25;3.70;;;;;;;16.72;64.49;93749.69;5069542;28;20032;-41
2022/07/21 05:56:06;;;;;;;4.15;3.75;;;;;;;16.83;63.68;93755.44;5069704;28;20032;-40
2022/07/21 05:58:33;;;;;;;6.75;3.80;;;;;;;16.92;63.95;93746.34;5068645;28;20064;-41
2022/07/21 06:01:08;;;;;;;3.40;3.15;;;;;;;17.06;63.95;93738.31;5065749;28;20069;-41
2022/07/21 06:03:38;;;;;;;11.63;3.85;;;;;;;17.13;64.44;93732.59;5068797;28;20083;-41
2022/07/21 06:06:04;;;;;;;11.77;3.85;;;;;;;17.22;63.34;93736.72;5068144;28;20124;-41
2022/07/21 06:08:30;;;;;;;9.57;3.85;;;;;;;17.42;62.15;93738.22;5066955;28;20115;-40
2022/07/21 06:10:55;;;;;;;9.95;3.67;;;;;;;17.55;62.84;93745.44;5069635;28;20032;-41
2022/07/21 06:13:21;;;;;;;4.55;3.40;;;;;;;17.72;61.91;93742.50;5069940;28;20021;-40
2022/07/21 06:15:46;;;;;;;4.22;3.15;;;;;;;17.84;61.33;93740.59;5072649;28;20504;-40
2022/07/21 06:18:12;;;;;;;10.50;4.50;;;;;;;17.80;60.33;93735.44;5073485;28;20036;-40
2022/07/21 06:20:37;;;;;;;9.45;3.53;;;;;;;17.97;60.90;93728.97;5072836;28;20039;-41
2022/07/21 06:23:03;;;;;;;6.15;2.97;;;;;;;17.99;59.82;93729.09;5073175;28;20056;-40
2022/07/21 06:25:28;;;;;;;13.82;4.78;;;;;;;18.11;59.11;93729.94;5073670;28;20059;-41
2022/07/21 06:27:54;;;;;;;3.80;3.35;;;;;;;18.22;59.13;93723.75;5073054;28;20071;-41
2022/07/21 06:30:19;;;;;;;3.35;3.05;;;;;;;18.37;59.15;93723.41;5073460;28;20031;-40
2022/07/21 06:32:45;;;;;;;3.33;2.78;;;;;;;18.49;59.29;93723.53;5073450;28;20085;-44
2022/07/21 06:35:11;;;;;;;4.60;2.95;;;;;;;18.60;58.81;93722.91;5073331;28;20028;-42
2022/07/21 06:37:36;;;;;;;10.52;3.45;;;;;;;18.84;57.24;93725.28;5073373;28;20489;-43
2022/07/21 06:40:03;;;;;;;5.40;3.03;;;;;;;18.91;58.53;93718.78;5073372;28;20035;-41
2022/07/21 06:42:28;;;;;;;15.90;3.55;;;;;;;19.03;58.00;93729.31;5073261;28;20029;-41
2022/07/21 06:44:54;;;;;;;8.43;3.28;;;;;;;19.21;58.91;93720.06;5073158;28;20229;-42
2022/07/21 06:47:19;;;;;;;4.88;2.88;;;;;;;19.22;57.99;93718.75;5073402;28;20024;-42
2022/07/21 06:49:45;;;;;;;8.30;3.20;;;;;;;19.40;56.75;93716.44;5072858;28;20024;-41
2022/07/21 06:52:10;;;;;;;8.90;3.17;;;;;;;19.65;55.75;93716.69;5073366;28;20024;-41
2022/07/21 06:54:36;;;;;;;4.40;2.53;;;;;;;19.73;55.63;93722.78;5072313;28;20033;-42
2022/07/21 06:57:02;;;;;;;5.32;2.85;;;;;;;19.94;55.57;93710.81;5070665;28;20036;-42
2022/07/21 06:59:27;;;;;;;6.45;3.40;;;;;;;20.03;53.67;93712.81;5073049;28;20028;-41
2022/07/21 07:01:53;;;;;;;3.53;3.05;;;;;;;20.15;54.27;93719.91;5072064;28;20024;-41
2022/07/21 07:04:18;;;;;;;3.72;3.10;;;;;;;20.31;54.90;93715.31;5071987;28;20040;-41
2022/07/21 07:06:44;;;;;;;4.15;3.13;;;;;;;20.44;53.22;93713.28;5071791;28;20036;-41
2022/07/21 07:09:09;;;;;;;5.68;3.50;;;;;;;20.37;53.77;93698.16;5072320;28;20036;-41
2022/07/21 07:11:34;;;;;;;3.13;2.83;;;;;;;20.71;52.90;93717.09;5072671;28;20021;-41
2022/07/21 07:14:00;;;;;;;5.93;4.32;;;;;;;20.84;52.64;93713.66;5072811;28;20031;-41
2022/07/21 07:16:26;;;;;;;3.03;2.70;;;;;;;20.78;52.55;93721.72;5072625;28;20034;-41
2022/07/21 07:18:51;;;;;;;6.38;3.30;;;;;;;20.98;53.24;93713.78;5072683;28;20028;-41
2022/07/21 07:21:17;;;;;;;7.72;2.95;;;;;;;21.06;52.73;93712.22;5072652;28;20024;-42
2022/07/21 07:23:42;;;;;;;6.50;2.70;;;;;;;21.40;51.43;93713.50;5072963;28;20024;-41
2022/07/21 07:26:08;;;;;;;2.42;2.22;;;;;;;21.66;50.06;93715.00;5072046;28;20512;-41
2022/07/21 07:28:34;;;;;;;3.75;2.50;;;;;;;21.80;49.10;93712.28;5071958;28;20045;-41
2022/07/21 07:30:59;;;;;;;2.65;2.25;;;;;;;21.95;48.56;93705.41;5072509;28;20062;-43
2022/07/21 07:33:25;;;;;;;4.68;2.15;;;;;;;22.50;48.15;93707.06;5071934;28;20028;-42
2022/07/21 07:35:51;;;;;;;3.70;2.08;;;;;;;22.96;47.26;93706.00;5072483;28;20028;-42
2022/07/21 07:38:16;;;;;;;2.70;2.33;;;;;;;23.85;45.65;93703.53;5071631;28;20051;-42
2022/07/21 07:40:42;;;;;;;2.97;2.28;;;;;;;24.78;42.00;93697.41;5070896;28;20063;-41
2022/07/21 07:43:08;;;;;;;2.42;2.17;;;;;;;25.02;41.48;93682.91;5066880;28;20548;-42
2022/07/21 07:45:35;;;;;;;2.85;1.92;;;;;;;25.36;40.48;93698.53;5072133;28;20031;-39
2022/07/21 07:48:01;;;;;;;3.25;2.35;;;;;;;25.92;39.68;93689.63;5072498;28;20028;-40
2022/07/21 07:50:26;;;;;;;2.63;2.03;;;;;;;26.58;39.81;93691.56;5073930;28;20417;-46
2022/07/21 07:52:52;;;;;;;2.97;2.40;;;;;;;26.78;36.46;93683.13;5072057;28;20115;-42
2022/07/21 07:55:17;;;;;;;3.22;2.05;;;;;;;27.26;36.60;93670.75;5070347;28;20032;-43
2022/07/21 07:57:43;;;;;;;4.35;2.28;;;;;;;27.47;37.24;93686.38;5070630;28;20115;-43
2022/07/21 08:00:12;;;;;;;2.85;2.15;;;;;;;27.51;35.91;93681.56;5069772;28;20040;-42
2022/07/21 08:02:37;;;;;;;;;;;;;;;28.01;35.20;93681.84;5069924;28;20036;-41
2022/07/21 08:05:04;;;;;;;2.58;2.20;;;;;;;28.24;34.80;93684.03;5069901;28;19912;-42
2022/07/21 08:07:29;;;;;;;5.85;2.88;;;;;;;28.81;33.86;93683.69;5070203;28;20059;-45
2022/07/21 08:09:55;;;;;;;2.60;2.38;;;;;;;29.22;33.34;93684.22;5069551;28;20066;-43
2022/07/21 08:12:20;;;;;;;4.97;2.67;;;;;;;29.73;33.67;93679.91;5070259;28;20024;-42
2022/07/21 08:14:45;;;;;;;3.60;2.60;;;;;;;30.38;32.82;93688.00;5071779;28;20023;-44
2022/07/21 08:17:11;;;;;;;4.07;2.22;;;;;;;30.90;30.83;93668.56;5071065;28;20119;-41
2022/07/21 08:19:36;;;;;;;3.58;2.80;;;;;;;31.08;30.72;93678.22;5071294;28;20433;-39
2022/07/21 08:22:02;;;;;;;3.95;2.58;;;;;;;31.71;31.06;93680.22;5071158;28;20028;-43
2022/07/21 08:24:27;;;;;;;2.40;2.17;;;;;;;32.40;28.53;93672.88;5070018;28;20107;-43
2022/07/21 08:26:53;;;;;;;2.90;2.05;;;;;;;32.94;29.14;93678.72;5071464;28;20095;-42
2022/07/21 08:29:19;;;;;;;3.85;2.55;;;;;;;32.85;28.31;93670.00;5071573;28;20055;-43
2022/07/21 08:31:44;;;;;;;4.15;3.05;;;;;;;32.64;27.73;93668.28;5071267;28;20063;-46
2022/07/21 08:34:10;;;;;;;6.78;2.90;;;;;;;33.01;27.32;93665.97;5071100;28;20048;-44
2022/07/21 08:36:35;;;;;;;3.55;2.60;;;;;;;33.03;29.71;93671.72;5070922;28;20119;-45
2022/07/21 08:39:01;;;;;;;2.75;2.38;;;;;;;33.50;28.27;93663.06;5070422;28;20119;-43
2022/07/21 08:41:26;;;;;;;6.38;2.83;;;;;;;33.83;28.08;93660.53;5071050;28;20024;-43
2022/07/21 08:43:52;;;;;;;7.10;2.63;;;;;;;34.17;27.10;93658.03;5053270;28;20613;-46
2022/07/21 08:46:21;;;;;;;2.60;2.20;;;;;;;34.62;26.62;93659.84;5070441;28;20028;-45
2022/07/21 08:48:47;;;;;;;2.53;2.33;;;;;;;35.10;26.28;93659.44;5070963;28;20127;-45
2022/07/21 08:51:15;;;;;;;2.65;2.45;;;;;;;35.23;24.30;93663.09;5053361;28;20517;-45
2022/07/21 08:53:40;;;;;;;2.20;2.00;;;;;;;35.08;25.91;93658.72;5071035;28;20028;-46
2022/07/21 08:56:06;;;;;;;65.15;8.73;;;;;;;34.94;24.98;93659.31;5059687;28;20036;-45
2022/07/21 08:58:32;;;;;;;2.63;1.85;;;;;;;35.63;23.32;93646.78;5069250;28;20510;-42
2022/07/21 09:00:58;;;;;;;4.93;1.90;;;;;;;36.07;23.38;93645.44;5064780;28;20060;-44
2022/07/21 09:03:26;;;;;;;2.90;2.33;;;;;;;36.26;23.52;93646.91;5069412;28;20075;-44
2022/07/21 09:06:18;;;;;;;5.72;2.28;;;;;;;36.50;22.24;93644.78;5071076;28;20029;-43
2022/07/21 09:08:49;;;;;;;2.85;1.88;;;;;;;36.27;21.18;93642.59;5067080;28;20036;-44
2022/07/21 09:11:23;;;;;;;3.92;2.05;;;;;;;36.20;22.58;93644.03;5070433;28;20032;-41
2022/07/21 09:14:10;;;;;;;11.13;2.15;;;;;;;36.39;22.89;93620.31;5070518;28;20020;-45
2022/07/21 09:16:51;;;;;;;8.02;2.90;;;;;;;36.70;22.73;93635.41;5069629;28;20512;-42
2022/07/21 09:19:26;;;;;;;2.17;1.98;;;;;;;36.80;21.21;93638.28;5070457;28;20570;-45
2022/07/21 09:21:54;;;;;;;4.63;2.20;;;;;;;36.91;22.65;93636.13;5070222;28;20067;-47
2022/07/21 09:24:29;;;;;;;2.10;1.92;;;;;;;37.37;22.25;93636.03;5070469;28;20025;-42
2022/07/21 09:27:01;;;;;;;3.70;2.60;;;;;;;37.92;20.80;93627.84;5070464;28;20036;-42
2022/07/21 09:29:26;;;;;;;2.50;2.30;;;;;;;37.24;19.65;93626.69;5070250;28;20028;-44
2022/07/21 09:31:52;;;;;;;3.40;2.00;;;;;;;36.91;20.42;93624.59;5070314;28;20034;-44
2022/07/21 09:34:20;;;;;;;2.15;1.95;;;;;;;37.58;20.89;93628.00;5052032;28;20035;-45
2022/07/21 09:36:57;;;;;;;3.35;1.98;;;;;;;37.57;21.15;93626.56;5069714;28;20115;-42
2022/07/21 09:39:50;;;;;;;3.05;1.95;;;;;;;37.84;21.31;93631.50;5062581;28;20512;-43
2022/07/21 09:42:17;;;;;;;5.13;1.92;;;;;;;37.83;20.22;93630.06;5070314;28;20028;-44
2022/07/21 09:44:54;;;;;;;2.38;1.50;;;;;;;37.95;18.67;93624.22;5070290;28;20417;-43
2022/07/21 09:47:23;;;;;;;4.60;2.17;;;;;;;37.52;18.64;93633.78;5070337;28;20036;-44
2022/07/21 09:49:49;;;;;;;5.03;1.83;;;;;;;37.53;19.65;93610.03;5069830;28;20103;-43
2022/07/21 09:52:20;;;;;;;1.92;1.75;;;;;;;37.77;20.67;93627.16;5068528;28;20123;-44
2022/07/21 09:54:46;;;;;;;2.58;1.95;;;;;;;38.04;18.67;93621.28;5061367;28;20028;-46
2022/07/21 09:57:11;;;;;;;4.63;1.90;;;;;;;37.09;18.96;93627.44;5070186;28;20566;-42
2022/07/21 09:59:38;;;;;;;4.97;2.10;;;;;;;37.17;18.77;93633.19;5070133;28;20490;-42
2022/07/21 10:02:04;;;;;;;19.30;3.58;;;;;;;36.76;20.81;93631.81;5069539;28;20227;-45
2022/07/21 10:04:30;;;;;;;3.28;2.00;;;;;;;36.80;19.57;93623.88;5070013;28;20046;-41
2022/07/21 10:06:56;;;;;;;2.05;1.60;;;;;;;36.03;20.13;93620.31;5069783;28;20083;-41
2022/07/21 10:09:22;;;;;;;2.90;1.80;;;;;;;35.47;20.93;93634.50;5052152;28;20025;-42
2022/07/21 10:11:47;;;;;;;3.00;1.98;;;;;;;35.52;20.74;93630.94;5051293;28;20478;-45
2022/07/21 10:14:13;;;;;;;1.92;1.73;;;;;;;36.01;20.99;93625.34;5051870;28;20028;-46
2022/07/21 10:16:39;;;;;;;2.00;1.90;;;;;;;35.88;21.10;93621.69;5068587;28;20043;-45
2022/07/21 10:19:13;;;;;;;2.90;2.15;;;;;;;35.49;20.32;93612.28;5070044;28;20081;-42
2022/07/21 10:22:01;;;;;;;2.67;2.10;;;;;;;35.19;21.32;93620.03;5068755;28;20033;-42
2022/07/21 10:24:30;;;;;;;2.10;1.85;;;;;;;35.34;22.48;93613.63;5057779;28;20040;-42
2022/07/21 10:27:10;;;;;;;2.55;2.15;;;;;;;35.52;20.62;93607.25;5071175;28;20111;-46
2022/07/21 10:29:52;;;;;;;2.17;1.80;;;;;;;35.06;22.71;93608.47;5084757;28;20024;-44
2022/07/21 10:32:20;;;;;;;2.85;2.65;;;;;;;34.88;24.40;93610.50;5049169;28;20036;-44
2022/07/21 10:34:48;;;;;;;4.78;2.47;;;;;;;35.38;23.89;93607.91;5060289;28;20031;-42
2022/07/21 10:37:39;;;;;;;2.42;2.20;;;;;;;35.27;21.73;93597.81;5052337;28;20060;-46
2022/07/21 10:40:06;;;;;;;3.33;2.38;;;;;;;34.91;22.20;93604.06;5069483;28;20032;-43
2022/07/21 10:42:32;;;;;;;6.47;2.95;;;;;;;34.96;23.29;93591.19;5069330;28;20039;-44
2022/07/21 10:44:57;;;;;;;2.80;2.50;;;;;;;35.09;22.81;93594.84;5069775;28;20016;-42
2022/07/21 10:47:30;;;;;;;4.30;3.15;;;;;;;34.78;22.19;93593.94;5068485;28;20025;-42
2022/07/21 10:49:56;;;;;;;8.07;2.90;;;;;;;34.57;23.16;93591.69;5068991;28;20035;-45
2022/07/21 10:52:41;;;;;;;3.15;2.40;;;;;;;34.63;22.11;93595.31;5069155;28;20024;-44
2022/07/21 10:55:12;;;;;;;1.88;1.70;;;;;;;34.80;21.93;93587.53;5066660;28;20032;-43
2022/07/21 10:57:41;;;;;;;7.85;2.10;;;;;;;34.68;22.79;93576.69;5069641;28;20444;-43
2022/07/21 11:00:30;;;;;;;5.72;2.17;;;;;;;34.56;22.50;93575.91;5069436;28;20036;-43
2022/07/21 11:02:59;;;;;;;;;;;;;;;33.95;22.83;93584.00;5072654;28;20116;-44
2022/07/21 11:05:27;;;;;;;3.60;1.92;;;;;;;33.42;23.05;93579.16;5072290;28;19928;-44
2022/07/21 11:08:12;;;;;;;;;;;;;;;33.21;25.09;93588.94;5071898;28;20039;-43
2022/07/21 11:10:39;;;;;;;19.77;2.63;;;;;;;33.44;24.79;93565.59;5071050;28;19965;-44
2022/07/21 11:13:05;;;;;;;6.88;1.92;;;;;;;33.72;26.11;93570.94;5071332;28;20103;-43
2022/07/21 11:16:06;;;;;;;2.70;1.95;;;;;;;34.14;24.46;93573.44;5071283;28;20123;-45
2022/07/21 11:18:32;;;;;;;2.70;2.15;;;;;;;34.43;23.31;93572.22;4983081;28;20034;-45
2022/07/21 11:21:01;;;;;;;3.28;2.33;;;;;;;34.54;23.16;93565.16;5055491;28;20043;-42
2022/07/21 11:23:44;;;;;;;4.07;1.77;;;;;;;34.71;22.83;93568.81;5072255;28;20028;-43
2022/07/21 11:26:12;;;;;;;4.47;2.03;;;;;;;34.59;23.55;93569.47;5072166;28;20437;-43
2022/07/21 11:28:38;;;;;;;3.50;2.40;;;;;;;34.24;22.52;93577.09;5070834;28;20036;-43
2022/07/21 11:31:12;;;;;;;8.13;7.32;;;;;;;33.75;23.54;93563.06;5051306;28;20037;-42
2022/07/21 11:33:39;;;;;;;5.63;3.25;;;;;;;33.70;24.22;93559.44;5070754;28;20021;-42
2022/07/21 11:36:05;;;;;;;9.15;6.20;;;;;;;33.32;25.05;93562.63;5064466;28;20041;-45